Terminal Aerodrome Forecast
Issued by NWS Upton, NY

Home | Current Version | Previous Version | Text Only | Print | Product List | Glossary On
Versions: 1 2 3 4 5 6 7 8 9 10 11 12 13 14 15 16 17 18 19 20 21 22 23 24 25 26 27 28 29 30 31 32
000
FTUS41 KOKX 272330
TAFEWR
TAF
KEWR 272330Z 2800/2906 18013G18KT P6SM SCT025 BKN050
      TEMPO 2800/2801 -SHRA
     FM280100 21010KT P6SM BKN050
     FM280800 22006KT P6SM SCT013
     FM281000 23006KT P6SM BKN013
     FM281500 23010KT P6SM SCT020 BKN200
     FM281800 26011G17KT P6SM BKN040
     FM290000 34010KT P6SM FEW120=

USA.gov is the U.S. government's official web portal to all federal, state and local government web resources and services.